Poplarville, MS (39470)

1:10 PM CST on December 02, 2016 (GMT -0600)
Poplarville | | Change Station

Elev 315 ft 30.82 °N, 89.52 °W | Updated 12 seconds ago

Mostly Cloudy
Mostly Cloudy
64.4 °F
Feels Like 64.4 °F
N
0.4
Wind Variable Wind from West
Gusts 2.5 mph

Today
High -- | Low -- °F
--% Chance of Precip.
Yesterday
High -- | Low -- °F
Precip. -- in
Pressure 30.22 in
Visibility 10.0 miles
Clouds Mostly Cloudy 9000 ft
Dew Point 16 °F
Humidity 15%
Rainfall 0.00 in
Snow Depth Not available.
6:39 AM 4:56 PM
Waxing Crescent, 10% visible
METAR KBXA 021855Z AUTO 08005KT 10SM BKN090 20/M02 A3022 RMK AO2 T01951019
Pressure 30.22 in
Visibility 10.0 miles
Clouds Mostly Cloudy 9000 ft
Dew Point 16 °F
Humidity 15%
Rainfall 0.00 in
Snow Depth Not available.
6:39 AM 4:56 PM
Waxing Crescent, 10% visible
METAR KBXA 021855Z AUTO 08005KT 10SM BKN090 20/M02 A3022 RMK AO2 T01951019

10-Day Weather Forecast

Almanac

Astronomy

Dec. 02, 2016 Rise Set
Actual Time
Civil Twilight
Nautical Twilight
Astronomical Twilight
Moon
Length of Visible Light
Length of Day
Tomorrow will be .
, % of the Moon is Illuminated

Today's Extremes

State Highs State Lows

Community

WunderPhotos

Upload Photos

1,955,343 photos uploaded!

WunderBlog® & News

Nearby

Air Quality

  Air Quality AQ Index Pollutant
Not available.

Snow Depth

Station Depth Elevation

Earthquake Activity

City Distance Mag. Time & Date
Minimum magnitude displayed is 2.5.

Coastal Water Temperatures

Place Temperature

Stations

Nearby Weather Stations

Station Location Temp. Windchill Dew Point Humidity Wind Precip. Elev Updated Type
                   

Watches & Warnings

There are currently no watches in effect.